logo dgac
Martes 21 de Septiembre del 2021
Buscar por aerodromo o helipuerto
Ingrese nombre de aeródromo, localidad o designador OACI:

Aeródromo: Cochrane (PUB) (SCHR)

Ubicación: Cochrane, XI Región, Chile (47º 14' 37'' S, 72º 35' 16'' W) Ver ubicación en el mapa

Pistas

Orientación Dimensión Pendiente Superficie Resistencia APCH THR RWY PAPI
07/25 1050 x 23 2,00 ASPH /CONCRETO 23.000 Kg No No No No
Horas de operación HJ
Elevación 196 m / 643 ft
Otra Información Adm : D.G.A.C.
Uso : PUB
Ubicado : 3 km NW Cochrane
TEL (FAX) 67 2522121
email : aro.cochrane@dgac.gob.cl

Al FCCV restar 30 minutos

Otra información ver AIP-Chile Volumen I AD 3.9-3.10-C
CCCM/FCCV Descargar
andera de Chile
Mapa de Cochrane (PUB) (SCHR)

Último METAR

METAR SCHR 211000Z AUTO 27008KT CAVOK 04/01 Q1021

Último TAF

TAF SCHR 211000Z 2112/2200 VRB03KT CAVOK TN06/2112Z TX15/2118Z

Últimas fotos cámaras

Imagen aerodromo Cochrane (PUB) (SCHR) Oeste tomada el 21-09-2021 11:11:44 Imagen aerodromo Cochrane (PUB) (SCHR) Este tomada el 21-09-2021 11:11:36

Último NOTAM

No hay notams registrados para este aeródromo